createdAt,value
2023-06-30T00:03:35.071Z,96.34
2023-06-30T00:08:38.275Z,97.47
2023-06-30T00:13:41.385Z,97.88
2023-06-30T00:18:44.604Z,98.27
2023-06-30T00:23:48.012Z,98.77
2023-06-30T00:28:51.327Z,99.06
2023-06-30T00:33:54.543Z,99.85
2023-06-30T00:38:57.660Z,100.00
2023-06-30T00:44:00.757Z,100.00
2023-06-30T00:49:03.871Z,100.00
2023-06-30T00:54:07.084Z,100.00
2023-06-30T00:59:10.289Z,100.00
2023-06-30T01:04:24.979Z,100.00
2023-06-30T01:09:34.003Z,100.00
2023-06-30T01:14:38.924Z,100.00
2023-06-30T01:19:46.350Z,100.00
2023-06-30T01:24:52.770Z,100.00
2023-06-30T01:29:55.980Z,100.00
2023-06-30T01:34:59.027Z,100.00
2023-06-30T01:40:02.407Z,100.00
2023-06-30T01:45:07.211Z,100.00
2023-06-30T01:50:11.176Z,100.00
2023-06-30T01:55:14.294Z,100.00
2023-06-30T02:00:17.610Z,100.00
2023-06-30T02:05:20.723Z,100.00
2023-06-30T02:10:23.828Z,100.00
2023-06-30T02:15:26.935Z,100.00
2023-06-30T02:20:29.936Z,100.00
2023-06-30T02:25:33.048Z,100.00
2023-06-30T02:30:36.072Z,100.00
2023-06-30T02:35:39.647Z,100.00
2023-06-30T02:40:42.783Z,100.00
2023-06-30T02:45:46.156Z,100.00
2023-06-30T02:50:49.613Z,100.00
2023-06-30T02:55:52.726Z,100.00
2023-06-30T03:00:57.877Z,100.00
2023-06-30T03:06:01.086Z,99.95
2023-06-30T03:11:04.215Z,100.00
2023-06-30T03:16:08.435Z,100.00
2023-06-30T03:21:11.648Z,100.00
2023-06-30T03:26:15.470Z,100.00
2023-06-30T03:31:18.620Z,100.00
2023-06-30T03:36:21.690Z,98.82
2023-06-30T03:41:24.695Z,92.43
2023-06-30T03:46:27.769Z,89.54
2023-06-30T03:51:30.909Z,89.68
2023-06-30T03:56:34.023Z,90.63
2023-06-30T04:01:38.526Z,91.04
2023-06-30T04:06:41.572Z,82.72
2023-06-30T04:11:44.687Z,76.31
2023-06-30T04:16:47.912Z,69.84
2023-06-30T04:21:51.306Z,64.42
2023-06-30T04:26:54.427Z,60.49
2023-06-30T04:31:57.602Z,57.17
2023-06-30T04:37:00.741Z,57.63
2023-06-30T04:42:04.585Z,52.36
2023-06-30T04:47:07.781Z,49.78
2023-06-30T04:52:11.095Z,48.39
2023-06-30T04:57:14.203Z,50.62
2023-06-30T05:02:17.230Z,52.06
2023-06-30T05:07:20.859Z,52.29
2023-06-30T05:12:24.166Z,49.80
2023-06-30T05:17:27.317Z,49.24
2023-06-30T05:22:30.465Z,46.11
2023-06-30T05:27:33.492Z,44.59
2023-06-30T05:32:36.721Z,43.86
2023-06-30T05:37:39.891Z,42.94
2023-06-30T05:42:42.998Z,44.25
2023-06-30T05:47:46.127Z,44.77
2023-06-30T05:52:49.897Z,46.24
2023-06-30T05:57:53.160Z,47.83
2023-06-30T06:02:56.615Z,50.24
2023-06-30T06:07:59.985Z,53.08
2023-06-30T06:13:03.078Z,55.17
2023-06-30T06:18:06.431Z,57.69
2023-06-30T06:23:09.630Z,59.25
2023-06-30T06:28:12.828Z,60.29
2023-06-30T06:33:15.835Z,58.40
2023-06-30T06:38:20.118Z,56.73
2023-06-30T06:43:27.651Z,55.18
2023-06-30T06:48:31.345Z,54.58
2023-06-30T06:53:35.632Z,54.08
2023-06-30T06:58:43.273Z,53.74
2023-06-30T07:03:47.018Z,53.37
2023-06-30T07:08:50.398Z,53.19
2023-06-30T07:13:53.406Z,52.33
2023-06-30T07:18:56.551Z,48.57
2023-06-30T07:23:59.846Z,47.34
2023-06-30T07:29:02.943Z,45.19
2023-06-30T07:34:06.172Z,42.76
2023-06-30T07:39:09.469Z,41.59
2023-06-30T07:44:13.190Z,41.85
2023-06-30T07:49:16.190Z,43.11
2023-06-30T07:54:19.395Z,41.97
2023-06-30T07:59:23.017Z,41.39
2023-06-30T08:04:26.475Z,40.74
2023-06-30T08:09:29.648Z,39.30
2023-06-30T08:14:32.858Z,39.25
2023-06-30T08:19:47.174Z,38.52
2023-06-30T08:24:52.713Z,37.39
2023-06-30T08:29:55.733Z,36.82
2023-06-30T08:34:58.899Z,36.91
2023-06-30T08:40:02.328Z,36.87
2023-06-30T08:45:06.488Z,36.51
2023-06-30T08:50:10.241Z,35.99
2023-06-30T08:55:13.984Z,36.26
2023-06-30T09:00:17.795Z,35.66
2023-06-30T09:05:26.192Z,36.64
2023-06-30T09:10:35.323Z,38.54
2023-06-30T09:15:41.371Z,39.17
2023-06-30T09:20:44.663Z,40.41
2023-06-30T09:25:48.511Z,40.62
2023-06-30T09:30:52.061Z,40.62
2023-06-30T09:35:57.638Z,40.81
2023-06-30T09:41:04.631Z,40.89
2023-06-30T09:46:07.741Z,40.32
2023-06-30T09:51:11.157Z,40.63
2023-06-30T09:56:24.264Z,39.96
2023-06-30T10:01:27.465Z,39.56
2023-06-30T10:06:32.151Z,39.86
2023-06-30T10:11:37.461Z,40.77
2023-06-30T10:16:41.434Z,41.39
2023-06-30T10:21:44.653Z,41.59
2023-06-30T10:26:48.991Z,40.72
2023-06-30T10:31:51.961Z,41.37
2023-06-30T10:36:55.418Z,41.55
2023-06-30T10:42:01.109Z,41.61
2023-06-30T10:47:06.657Z,41.40
2023-06-30T10:52:11.551Z,41.60
2023-06-30T10:57:24.657Z,42.39
2023-06-30T11:02:32.561Z,42.88
2023-06-30T11:07:35.934Z,42.60
2023-06-30T11:12:53.560Z,42.81
2023-06-30T11:17:56.731Z,42.90
2023-06-30T11:23:04.372Z,42.81
2023-06-30T11:28:10.187Z,42.05
2023-06-30T11:33:13.254Z,42.28
2023-06-30T11:38:16.659Z,42.45
2023-06-30T11:43:23.452Z,43.15
2023-06-30T11:48:29.597Z,43.39
2023-06-30T11:53:32.946Z,44.57
2023-06-30T11:58:36.051Z,45.11
2023-06-30T12:03:39.219Z,45.41
2023-06-30T12:08:42.382Z,46.06
2023-06-30T12:13:48.473Z,46.72
2023-06-30T12:18:52.074Z,47.10
2023-06-30T12:23:58.372Z,46.76
2023-06-30T12:29:06.377Z,46.92
2023-06-30T12:34:09.634Z,47.51
2023-06-30T12:39:12.820Z,47.36
2023-06-30T12:44:16.265Z,47.31
2023-06-30T12:49:19.458Z,46.96
2023-06-30T12:54:22.649Z,47.34
2023-06-30T12:59:25.977Z,47.06
2023-06-30T13:04:29.280Z,47.93
2023-06-30T13:09:32.284Z,49.10
2023-06-30T13:14:35.355Z,49.30
2023-06-30T13:19:38.397Z,49.43
2023-06-30T13:24:42.180Z,50.14
2023-06-30T13:29:52.607Z,50.66
2023-06-30T13:34:56.154Z,51.09
2023-06-30T13:39:59.636Z,51.47
2023-06-30T13:45:02.647Z,52.03
2023-06-30T13:50:06.370Z,52.26
2023-06-30T13:55:09.724Z,52.48
2023-06-30T14:00:13.717Z,52.98
2023-06-30T14:05:16.964Z,53.19
2023-06-30T14:10:20.132Z,53.03
2023-06-30T14:15:23.561Z,52.99
2023-06-30T14:20:26.761Z,52.45
2023-06-30T14:25:29.879Z,52.43
2023-06-30T14:30:35.623Z,51.90
2023-06-30T14:35:39.099Z,50.40
2023-06-30T14:40:42.480Z,50.53
2023-06-30T14:45:46.096Z,50.31
2023-06-30T14:50:49.989Z,50.28
2023-06-30T14:55:53.253Z,49.84
2023-06-30T15:00:56.446Z,50.60
2023-06-30T15:05:59.558Z,50.31
2023-06-30T15:11:02.700Z,50.74
2023-06-30T15:16:06.193Z,51.01
2023-06-30T15:21:09.406Z,51.09
2023-06-30T15:26:12.517Z,51.82
2023-06-30T15:31:15.925Z,52.67
2023-06-30T15:36:19.078Z,52.88
2023-06-30T15:41:23.634Z,53.50
2023-06-30T15:46:26.948Z,53.33
2023-06-30T15:51:30.104Z,53.50
2023-06-30T15:56:33.206Z,53.83
2023-06-30T16:01:36.316Z,54.30
2023-06-30T16:06:39.628Z,54.53
2023-06-30T16:11:42.713Z,55.34
2023-06-30T16:16:46.191Z,56.48
2023-06-30T16:21:50.271Z,57.41
2023-06-30T16:26:53.508Z,59.01
2023-06-30T16:31:56.520Z,61.69
2023-06-30T16:36:59.927Z,69.60
2023-06-30T16:42:03.061Z,75.12
2023-06-30T16:47:06.489Z,80.39
2023-06-30T16:52:09.763Z,84.47
2023-06-30T16:57:12.886Z,87.90
2023-06-30T17:02:16.899Z,93.12
2023-06-30T17:07:20.016Z,96.06
2023-06-30T17:12:23.124Z,98.64
2023-06-30T17:17:26.548Z,99.94
2023-06-30T17:22:29.751Z,100.00
2023-06-30T17:27:33.164Z,100.00
2023-06-30T17:32:36.293Z,100.00
2023-06-30T17:37:39.486Z,100.00
2023-06-30T17:42:42.431Z,100.00
2023-06-30T17:47:45.639Z,100.00
2023-06-30T17:52:48.713Z,100.00
2023-06-30T17:57:51.715Z,100.00
2023-06-30T18:02:54.787Z,100.00
2023-06-30T18:07:58.749Z,100.00
2023-06-30T18:13:03.303Z,100.00
2023-06-30T18:18:06.440Z,100.00
2023-06-30T18:23:09.720Z,100.00
2023-06-30T18:28:13.149Z,100.00
2023-06-30T18:33:16.958Z,100.00
2023-06-30T18:38:20.060Z,100.00
2023-06-30T18:43:23.067Z,100.00
2023-06-30T18:48:26.185Z,100.00
2023-06-30T18:53:29.288Z,100.00
2023-06-30T18:58:32.296Z,100.00
2023-06-30T19:03:35.474Z,100.00
2023-06-30T19:08:38.927Z,100.00
2023-06-30T19:13:42.245Z,100.00
2023-06-30T19:18:45.662Z,100.00
2023-06-30T19:23:48.881Z,100.00
2023-06-30T19:28:51.985Z,100.00
2023-06-30T19:33:55.404Z,100.00
2023-06-30T19:38:58.459Z,100.00
2023-06-30T19:44:01.623Z,100.00
2023-06-30T19:49:04.929Z,100.00
2023-06-30T19:54:08.347Z,100.00
2023-06-30T19:59:11.638Z,100.00
2023-06-30T20:04:14.951Z,100.00
2023-06-30T20:09:19.321Z,100.00
2023-06-30T20:14:22.524Z,100.00
2023-06-30T20:19:25.541Z,100.00
2023-06-30T20:24:28.694Z,100.00
2023-06-30T20:29:31.957Z,100.00
2023-06-30T20:34:35.071Z,100.00
2023-06-30T20:39:39.818Z,100.00
2023-06-30T20:44:43.245Z,100.00
2023-06-30T20:49:46.476Z,100.00
2023-06-30T20:54:49.754Z,100.00
2023-06-30T20:59:52.759Z,100.00
2023-06-30T21:04:59.006Z,100.00
2023-06-30T21:10:02.252Z,100.00
2023-06-30T21:15:06.071Z,100.00
2023-06-30T21:20:10.087Z,100.00
2023-06-30T21:25:13.247Z,100.00
2023-06-30T21:30:16.545Z,100.00
2023-06-30T21:35:19.741Z,100.00
2023-06-30T21:40:22.906Z,100.00
2023-06-30T21:45:26.070Z,100.00
2023-06-30T21:50:29.293Z,100.00
2023-06-30T21:55:32.734Z,100.00
2023-06-30T22:00:36.313Z,100.00
2023-06-30T22:05:39.424Z,100.00
2023-06-30T22:10:42.438Z,100.00
2023-06-30T22:15:45.656Z,100.00
2023-06-30T22:20:49.042Z,100.00
2023-06-30T22:25:52.477Z,100.00
2023-06-30T22:30:55.599Z,100.00
2023-06-30T22:35:58.695Z,100.00
2023-06-30T22:41:02.252Z,100.00
2023-06-30T22:46:05.319Z,100.00
2023-06-30T22:51:08.323Z,100.00
2023-06-30T22:56:11.437Z,100.00
2023-06-30T23:01:14.591Z,100.00
2023-06-30T23:06:17.654Z,100.00
2023-06-30T23:11:20.869Z,100.00
2023-06-30T23:16:24.381Z,100.00
2023-06-30T23:21:29.134Z,100.00
2023-06-30T23:26:36.417Z,100.00
2023-06-30T23:31:40.429Z,100.00
2023-06-30T23:36:43.575Z,100.00
2023-06-30T23:41:46.580Z,100.00
2023-06-30T23:46:49.759Z,100.00
2023-06-30T23:51:53.107Z,100.00
2023-06-30T23:56:56.221Z,100.00
